createdAt,value
2019-04-10T00:00:10.567Z,0.00
2019-04-10T00:02:13.729Z,0.00
2019-04-10T00:03:25.888Z,0.00
2019-04-10T00:05:18.102Z,0.00
2019-04-10T00:06:18.657Z,0.00
2019-04-10T00:08:22.509Z,0.00
2019-04-10T00:09:23.185Z,0.00
2019-04-10T00:11:27.000Z,0.00
2019-04-10T00:12:27.143Z,0.00
2019-04-10T00:14:31.507Z,0.00
2019-04-10T00:15:32.610Z,0.00
2019-04-10T00:17:35.681Z,0.00
2019-04-10T00:18:35.972Z,0.00
2019-04-10T00:20:28.992Z,0.00
2019-04-10T00:21:29.287Z,0.00
2019-04-10T00:23:33.389Z,0.00
2019-04-10T00:24:33.623Z,0.00
2019-04-10T00:26:37.785Z,0.00
2019-04-10T00:27:38.865Z,0.00
2019-04-10T00:29:42.543Z,0.00
2019-04-10T00:30:43.055Z,0.00
2019-04-10T00:32:46.600Z,0.00
2019-04-10T00:33:47.220Z,0.00
2019-04-10T00:35:51.957Z,0.00
2019-04-10T00:36:51.440Z,0.00
2019-04-10T00:38:55.913Z,0.00
2019-04-10T00:39:55.610Z,0.00
2019-04-10T00:42:00.785Z,0.00
2019-04-10T00:43:00.292Z,0.00
2019-04-10T00:45:04.163Z,0.00
2019-04-10T00:46:04.404Z,0.00
2019-04-10T00:48:08.568Z,0.00
2019-04-10T00:49:09.254Z,0.00
2019-04-10T00:51:13.134Z,0.00
2019-04-10T00:52:14.213Z,0.00
2019-04-10T00:54:18.179Z,0.00
2019-04-10T00:55:17.606Z,0.00
2019-04-10T00:57:21.761Z,0.00
2019-04-10T00:58:22.508Z,0.00
2019-04-10T01:00:15.059Z,0.00
2019-04-10T01:01:15.970Z,0.00
2019-04-10T01:03:19.450Z,0.00
2019-04-10T01:04:20.350Z,0.00
2019-04-10T01:06:24.132Z,0.00
2019-04-10T01:07:35.962Z,0.00
2019-04-10T01:09:29.109Z,0.00
2019-04-10T01:10:28.542Z,0.00
2019-04-10T01:12:32.622Z,0.00
2019-04-10T01:13:32.855Z,0.00
2019-04-10T01:15:36.995Z,0.00
2019-04-10T01:16:37.717Z,0.00
2019-04-10T01:18:41.628Z,0.00
2019-04-10T01:19:41.849Z,0.00
2019-04-10T01:21:46.448Z,0.00
2019-04-10T01:22:46.002Z,0.00
2019-04-10T01:24:50.317Z,0.00
2019-04-10T01:25:50.595Z,0.00
2019-04-10T01:27:54.574Z,0.00
2019-04-10T01:28:55.600Z,0.00
2019-04-10T01:30:59.163Z,0.00
2019-04-10T01:31:59.539Z,0.00
2019-04-10T01:34:03.360Z,0.00
2019-04-10T01:35:03.580Z,0.00
2019-04-10T01:37:08.313Z,0.00
2019-04-10T01:38:07.971Z,0.00
2019-04-10T01:40:01.046Z,0.00
2019-04-10T01:41:01.538Z,0.00
2019-04-10T01:43:11.513Z,0.00
2019-04-10T01:44:05.745Z,0.00
2019-04-10T01:46:10.332Z,0.00
2019-04-10T01:47:10.887Z,0.00
2019-04-10T01:49:14.213Z,0.00
2019-04-10T01:50:14.571Z,0.00
2019-04-10T01:52:18.590Z,0.00
2019-04-10T01:53:19.685Z,0.00
2019-04-10T01:55:25.719Z,0.00
2019-04-10T01:56:29.439Z,0.00
2019-04-10T01:58:27.416Z,0.00
2019-04-10T01:59:27.618Z,0.00
2019-04-10T02:01:32.529Z,0.00
2019-04-10T02:02:31.994Z,0.00
2019-04-10T02:04:36.155Z,0.00
2019-04-10T02:05:36.627Z,0.00
2019-04-10T02:07:40.532Z,0.00
2019-04-10T02:08:40.763Z,0.00
2019-04-10T02:10:34.279Z,0.00
2019-04-10T02:11:34.288Z,0.00
2019-04-10T02:13:39.253Z,0.00
2019-04-10T02:14:38.649Z,0.00
2019-04-10T02:16:43.223Z,0.00
2019-04-10T02:17:42.869Z,0.00
2019-04-10T02:19:48.014Z,0.00
2019-04-10T02:20:47.416Z,0.00
2019-04-10T02:22:51.927Z,0.00
2019-04-10T02:23:52.396Z,0.00
2019-04-10T02:25:56.923Z,0.00
2019-04-10T02:26:56.148Z,0.00
2019-04-10T02:29:00.204Z,0.00
2019-04-10T02:30:00.439Z,0.00
2019-04-10T02:32:04.745Z,0.00
2019-04-10T02:33:06.098Z,0.00
2019-04-10T02:35:12.381Z,0.00
2019-04-10T02:36:10.763Z,0.00
2019-04-10T02:38:32.775Z,0.00
2019-04-10T02:39:24.410Z,0.00
2019-04-10T02:41:19.206Z,0.00
2019-04-10T02:42:18.636Z,0.00
2019-04-10T02:44:22.918Z,0.00
2019-04-10T02:45:23.801Z,0.00
2019-04-10T02:47:26.609Z,0.00
2019-04-10T02:48:27.554Z,0.00
2019-04-10T02:50:20.761Z,0.00
2019-04-10T02:51:20.163Z,0.00
2019-04-10T02:53:25.598Z,0.00
2019-04-10T02:54:25.140Z,0.00
2019-04-10T02:56:28.642Z,0.00
2019-04-10T02:57:29.433Z,0.00
2019-04-10T02:59:33.498Z,0.00
2019-04-10T03:00:33.855Z,0.00
2019-04-10T03:02:38.778Z,0.00
2019-04-10T03:03:38.438Z,0.00
2019-04-10T03:05:42.679Z,0.00
2019-04-10T03:06:42.793Z,0.00
2019-04-10T03:09:04.866Z,0.00
2019-04-10T03:10:00.893Z,0.00
2019-04-10T03:11:51.922Z,0.00
2019-04-10T03:12:52.429Z,0.00
2019-04-10T03:14:55.192Z,0.00
2019-04-10T03:15:55.893Z,0.00
2019-04-10T03:17:59.348Z,0.00
2019-04-10T03:18:59.625Z,0.00
2019-04-10T03:21:04.774Z,0.00
2019-04-10T03:22:03.979Z,0.00
2019-04-10T03:24:08.117Z,0.00
2019-04-10T03:25:08.907Z,0.00
2019-04-10T03:27:12.514Z,0.00
2019-04-10T03:28:12.749Z,0.00
2019-04-10T03:30:07.430Z,0.00
2019-04-10T03:31:07.930Z,0.00
2019-04-10T03:33:14.275Z,0.00
2019-04-10T03:34:13.113Z,0.00
2019-04-10T03:36:15.597Z,0.00
2019-04-10T03:37:14.842Z,0.00
2019-04-10T03:39:18.993Z,0.00
2019-04-10T03:40:19.572Z,0.00
2019-04-10T03:42:23.394Z,0.00
2019-04-10T03:43:23.719Z,0.00
2019-04-10T03:45:28.563Z,0.00
2019-04-10T03:46:28.033Z,0.00
2019-04-10T03:48:33.335Z,0.00
2019-04-10T03:49:32.408Z,0.00
2019-04-10T03:51:36.713Z,0.00
2019-04-10T03:52:37.823Z,0.00
2019-04-10T03:54:40.945Z,0.00
2019-04-10T03:55:41.177Z,0.00
2019-04-10T03:57:45.341Z,0.00
2019-04-10T03:58:45.575Z,0.00
2019-04-10T04:00:38.665Z,0.00
2019-04-10T04:01:38.974Z,0.00
2019-04-10T04:03:43.037Z,0.00
2019-04-10T04:04:43.858Z,4.00
2019-04-10T04:06:48.163Z,0.00
2019-04-10T04:07:48.501Z,4.00
2019-04-10T04:09:51.803Z,4.00
2019-04-10T04:10:53.065Z,4.00
2019-04-10T04:12:57.182Z,8.00
2019-04-10T04:13:56.437Z,8.00
2019-04-10T04:16:00.597Z,12.00
2019-04-10T04:17:01.807Z,12.00
2019-04-10T04:19:05.921Z,20.00
2019-04-10T04:20:05.205Z,24.00
2019-04-10T04:22:09.372Z,32.00
2019-04-10T04:23:09.659Z,40.00
2019-04-10T04:25:14.777Z,52.00
2019-04-10T04:26:14.811Z,64.00
2019-04-10T04:28:18.890Z,84.00
2019-04-10T04:29:18.547Z,100.00
2019-04-10T04:31:22.895Z,128.00
2019-04-10T04:32:23.754Z,144.00
2019-04-10T04:34:27.273Z,184.00
2019-04-10T04:35:27.758Z,204.00
2019-04-10T04:37:31.317Z,252.00
2019-04-10T04:38:32.283Z,280.00
2019-04-10T04:40:24.633Z,332.00
2019-04-10T04:41:25.338Z,360.00
2019-04-10T04:43:29.060Z,432.00
2019-04-10T04:44:29.311Z,472.00
2019-04-10T04:46:34.520Z,548.00
2019-04-10T04:47:33.706Z,596.00
2019-04-10T04:49:38.340Z,688.00
2019-04-10T04:50:38.576Z,732.00
2019-04-10T04:52:43.513Z,832.00
2019-04-10T04:53:44.011Z,896.00
2019-04-10T04:55:47.121Z,1016.00
2019-04-10T04:56:48.320Z,1068.00
2019-04-10T04:58:51.797Z,1188.00
2019-04-10T04:59:52.679Z,1248.00
2019-04-10T05:01:56.990Z,1384.00
2019-04-10T05:02:56.160Z,1444.00
2019-04-10T05:05:00.419Z,1560.00
2019-04-10T05:06:00.542Z,1616.00
2019-04-10T05:08:05.897Z,1744.00
2019-04-10T05:09:04.940Z,1808.00
2019-04-10T05:11:09.852Z,1892.00
2019-04-10T05:12:09.400Z,1928.00
2019-04-10T05:14:13.486Z,2028.00
2019-04-10T05:15:13.724Z,2092.00
2019-04-10T05:17:18.282Z,2260.00
2019-04-10T05:18:19.066Z,2356.00
2019-04-10T05:20:11.243Z,2568.00
2019-04-10T05:21:11.434Z,2696.00
2019-04-10T05:23:16.063Z,3040.00
2019-04-10T05:24:15.884Z,3240.00
2019-04-10T05:26:20.797Z,3660.00
2019-04-10T05:27:20.216Z,3868.00
2019-04-10T05:29:25.036Z,4328.00
2019-04-10T05:30:25.073Z,4524.00
2019-04-10T05:32:28.758Z,4884.00
2019-04-10T05:33:28.991Z,5048.00
2019-04-10T05:35:33.159Z,5340.00
2019-04-10T05:36:33.571Z,5460.00
2019-04-10T05:38:37.713Z,5704.00
2019-04-10T05:39:43.169Z,5820.00
2019-04-10T05:41:41.968Z,6064.00
2019-04-10T05:42:42.172Z,6168.00
2019-04-10T05:44:46.340Z,6388.00
2019-04-10T05:45:46.582Z,6504.00
2019-04-10T05:47:50.796Z,6752.00
2019-04-10T05:48:50.955Z,6848.00
2019-04-10T05:50:54.017Z,7032.00
2019-04-10T05:51:44.283Z,7116.00
2019-04-10T05:53:51.059Z,7248.00
2019-04-10T05:54:49.352Z,7276.00
2019-04-10T05:56:52.826Z,7272.00
2019-04-10T05:57:53.187Z,7272.00
2019-04-10T05:59:57.224Z,7240.00
2019-04-10T06:00:57.460Z,7264.00
2019-04-10T06:03:01.625Z,7568.00
2019-04-10T06:04:03.014Z,7736.00
2019-04-10T06:06:06.253Z,7832.00
2019-04-10T06:07:06.304Z,7860.00
2019-04-10T06:09:10.505Z,8180.00
2019-04-10T06:10:10.890Z,8348.00
2019-04-10T06:12:14.914Z,8560.00
2019-04-10T06:13:15.158Z,8664.00
2019-04-10T06:15:19.338Z,8748.00
2019-04-10T06:16:19.647Z,8748.00
2019-04-10T06:18:23.864Z,8952.00
2019-04-10T06:19:25.337Z,9048.00
2019-04-10T06:21:28.747Z,9256.00
2019-04-10T06:22:28.507Z,9360.00
2019-04-10T06:24:32.521Z,9688.00
2019-04-10T06:25:34.105Z,9996.00
2019-04-10T06:27:36.908Z,10552.00
2019-04-10T06:28:38.010Z,11124.00
2019-04-10T06:30:30.248Z,11812.00
2019-04-10T06:31:30.531Z,12324.00
2019-04-10T06:33:34.649Z,13440.00
2019-04-10T06:34:34.891Z,13648.00
2019-04-10T06:36:39.635Z,13604.00
2019-04-10T06:37:40.084Z,13936.00
2019-04-10T06:39:45.718Z,14896.00
2019-04-10T06:40:44.063Z,15684.00
2019-04-10T06:42:52.043Z,16252.00
2019-04-10T06:43:48.149Z,15756.00
2019-04-10T06:45:52.435Z,17600.00
2019-04-10T06:46:52.899Z,17536.00
2019-04-10T06:48:56.781Z,18752.00
2019-04-10T06:49:57.032Z,20352.00
2019-04-10T06:52:02.172Z,19360.00
2019-04-10T06:53:02.420Z,19552.00
2019-04-10T06:55:06.595Z,23360.00
2019-04-10T06:56:06.998Z,24672.00
2019-04-10T06:58:11.662Z,23680.00
2019-04-10T06:59:12.170Z,24992.00
2019-04-10T07:01:16.577Z,31200.00
2019-04-10T07:02:23.737Z,30624.00
2019-04-10T07:04:23.865Z,20800.00
2019-04-10T07:05:20.143Z,20448.00
2019-04-10T07:07:30.820Z,20032.00
2019-04-10T07:08:26.016Z,19072.00
2019-04-10T07:10:25.887Z,18656.00
2019-04-10T07:11:19.910Z,18592.00
2019-04-10T07:13:22.009Z,18240.00
2019-04-10T07:14:22.561Z,17888.00
2019-04-10T07:16:29.732Z,17168.00
2019-04-10T07:17:27.125Z,16960.00
2019-04-10T07:19:30.904Z,16896.00
2019-04-10T07:20:31.613Z,17100.00
2019-04-10T07:22:35.296Z,18368.00
2019-04-10T07:23:36.486Z,18656.00
2019-04-10T07:25:42.465Z,19232.00
2019-04-10T07:26:43.432Z,20224.00
2019-04-10T07:28:46.385Z,26880.00
2019-04-10T07:29:44.644Z,28544.00
2019-04-10T07:31:50.795Z,29952.00
2019-04-10T07:32:50.809Z,31680.00
2019-04-10T07:34:59.199Z,33504.00
2019-04-10T07:35:56.503Z,34592.00
2019-04-10T07:37:59.589Z,35072.00
2019-04-10T07:38:59.212Z,35936.00
2019-04-10T07:41:06.288Z,35008.00
2019-04-10T07:42:04.142Z,35552.00
2019-04-10T07:44:08.040Z,40640.00
2019-04-10T07:45:07.573Z,41856.00
2019-04-10T07:47:11.783Z,44224.00
2019-04-10T07:48:12.862Z,45024.00
2019-04-10T07:50:08.147Z,44384.00
2019-04-10T07:51:05.419Z,44832.00
2019-04-10T07:53:10.460Z,48640.00
2019-04-10T07:54:09.833Z,49984.00
2019-04-10T07:56:18.011Z,48128.00
2019-04-10T07:57:14.266Z,49024.00
2019-04-10T07:59:20.368Z,47424.00
2019-04-10T08:00:20.141Z,49280.00
2019-04-10T08:02:25.507Z,53504.00
2019-04-10T08:03:25.230Z,55808.00
2019-04-10T08:05:29.613Z,54976.00
2019-04-10T08:06:29.562Z,56768.00
2019-04-10T08:08:34.015Z,57728.00
2019-04-10T08:09:33.981Z,59488.00
2019-04-10T08:11:38.243Z,59392.00
2019-04-10T08:12:46.020Z,58400.00
2019-04-10T08:14:42.608Z,63456.00
2019-04-10T08:15:43.311Z,61760.00
2019-04-10T08:17:50.534Z,64768.00
2019-04-10T08:18:47.792Z,62016.00
2019-04-10T08:20:40.357Z,60352.00
2019-04-10T08:21:40.601Z,57888.00
2019-04-10T08:23:44.779Z,65792.00
2019-04-10T08:24:47.181Z,65728.00
2019-04-10T08:26:49.297Z,64928.00
2019-04-10T08:27:50.114Z,57504.00
2019-04-10T08:29:54.727Z,66176.00
2019-04-10T08:30:54.656Z,71680.00
2019-04-10T08:33:01.284Z,67552.00
2019-04-10T08:33:59.029Z,64512.00
2019-04-10T08:36:03.237Z,69920.00
2019-04-10T08:37:03.747Z,70880.00
2019-04-10T08:39:06.893Z,64288.00
2019-04-10T08:40:07.492Z,68128.00
2019-04-10T08:42:11.301Z,75392.00
2019-04-10T08:43:11.786Z,71680.00
2019-04-10T08:45:16.747Z,69792.00
2019-04-10T08:46:15.940Z,64800.00
2019-04-10T08:48:20.119Z,61472.00
2019-04-10T08:49:21.353Z,56128.00
2019-04-10T08:51:25.529Z,66368.00
2019-04-10T08:52:24.765Z,73504.00
2019-04-10T08:54:28.994Z,80704.00
2019-04-10T08:55:30.245Z,81952.00
2019-04-10T08:57:34.197Z,78336.00
2019-04-10T08:58:33.623Z,82688.00
2019-04-10T09:00:26.879Z,84416.00
2019-04-10T09:01:26.957Z,80864.00
2019-04-10T09:03:31.140Z,78208.00
2019-04-10T09:04:31.383Z,80896.00
2019-04-10T09:06:35.643Z,82848.00
2019-04-10T09:07:35.972Z,84352.00
2019-04-10T09:09:39.994Z,87904.00
2019-04-10T09:10:40.660Z,88544.00
2019-04-10T09:12:45.095Z,85536.00
2019-04-10T09:13:44.702Z,84320.00
2019-04-10T09:15:49.903Z,79200.00
2019-04-10T09:16:49.115Z,80736.00
2019-04-10T09:18:53.823Z,86368.00
2019-04-10T09:19:54.062Z,88352.00
2019-04-10T09:21:57.721Z,85920.00
2019-04-10T09:23:15.553Z,86656.00
2019-04-10T09:25:02.838Z,94656.00
2019-04-10T09:26:02.389Z,95200.00
2019-04-10T09:28:06.573Z,70464.00
2019-04-10T09:29:06.840Z,73600.00
2019-04-10T09:31:10.983Z,54496.00
2019-04-10T09:32:11.277Z,50112.00
2019-04-10T09:34:15.835Z,43552.00
2019-04-10T09:35:16.356Z,29664.00
2019-04-10T09:37:19.909Z,28288.00
2019-04-10T09:38:20.966Z,27168.00
2019-04-10T09:40:14.071Z,32000.00
2019-04-10T09:41:14.006Z,38912.00
2019-04-10T09:43:17.794Z,83328.00
2019-04-10T09:44:18.652Z,86016.00
2019-04-10T09:46:22.004Z,54720.00
2019-04-10T09:47:22.774Z,66016.00
2019-04-10T09:49:37.702Z,79392.00
2019-04-10T09:50:27.571Z,85376.00
2019-04-10T09:52:31.993Z,85632.00
2019-04-10T09:53:31.097Z,87584.00
2019-04-10T09:55:36.246Z,94144.00
2019-04-10T09:56:36.394Z,98272.00
2019-04-10T09:58:40.701Z,97440.00
2019-04-10T09:59:41.296Z,97664.00
2019-04-10T10:01:45.105Z,78240.00
2019-04-10T10:02:45.352Z,60672.00
2019-04-10T10:04:50.446Z,54496.00
2019-04-10T10:05:50.925Z,75584.00
2019-04-10T10:07:56.090Z,90432.00
2019-04-10T10:08:54.379Z,92640.00
2019-04-10T10:10:58.383Z,98240.00
2019-04-10T10:11:58.911Z,99968.00
2019-04-10T10:14:04.011Z,108864.00
2019-04-10T10:15:03.058Z,107296.00
2019-04-10T10:17:07.222Z,98176.00
2019-04-10T10:18:07.467Z,102272.00
2019-04-10T10:20:01.699Z,105376.00
2019-04-10T10:21:01.866Z,102976.00
2019-04-10T10:23:05.426Z,94400.00
2019-04-10T10:24:05.267Z,92448.00
2019-04-10T10:26:09.994Z,62368.00
2019-04-10T10:27:09.694Z,93184.00
2019-04-10T10:29:13.917Z,110656.00
2019-04-10T10:30:14.194Z,112512.00
2019-04-10T10:32:19.206Z,109760.00
2019-04-10T10:33:18.608Z,110464.00
2019-04-10T10:35:23.125Z,118080.00
2019-04-10T10:36:34.667Z,118368.00
2019-04-10T10:38:27.443Z,102496.00
2019-04-10T10:39:28.581Z,97120.00
2019-04-10T10:41:31.974Z,108576.00
2019-04-10T10:42:32.084Z,105056.00
2019-04-10T10:44:36.312Z,62144.00
2019-04-10T10:45:36.739Z,51968.00
2019-04-10T10:47:40.740Z,118848.00
2019-04-10T10:48:41.852Z,115712.00
2019-04-10T10:50:34.193Z,51936.00
2019-04-10T10:51:35.039Z,36480.00
2019-04-10T10:53:38.659Z,33152.00
2019-04-10T10:54:38.992Z,45888.00
2019-04-10T10:56:43.001Z,84256.00
2019-04-10T10:57:43.608Z,44704.00
2019-04-10T10:59:47.432Z,74144.00
2019-04-10T11:00:47.675Z,87680.00
2019-04-10T11:02:51.965Z,69728.00
2019-04-10T11:03:52.079Z,54336.00
2019-04-10T11:05:56.259Z,36864.00
2019-04-10T11:06:59.959Z,47968.00
2019-04-10T11:09:01.863Z,39424.00
2019-04-10T11:10:01.289Z,52224.00
2019-04-10T11:12:06.548Z,71168.00
2019-04-10T11:13:06.477Z,82976.00
2019-04-10T11:15:10.110Z,101344.00
2019-04-10T11:16:09.760Z,98400.00
2019-04-10T11:18:13.928Z,89248.00
2019-04-10T11:19:15.261Z,85824.00
2019-04-10T11:21:18.352Z,39936.00
2019-04-10T11:22:22.629Z,42880.00
2019-04-10T11:24:22.881Z,45248.00
2019-04-10T11:25:23.785Z,50880.00
2019-04-10T11:27:28.052Z,58752.00
2019-04-10T11:28:30.273Z,66720.00
2019-04-10T11:30:20.669Z,73504.00
2019-04-10T11:31:21.133Z,69600.00
2019-04-10T11:33:25.089Z,41184.00
2019-04-10T11:34:26.408Z,40000.00
2019-04-10T11:36:30.006Z,48960.00
2019-04-10T11:37:37.462Z,52576.00
2019-04-10T11:39:37.306Z,54432.00
2019-04-10T11:40:34.449Z,64160.00
2019-04-10T11:42:40.077Z,59616.00
2019-04-10T11:43:38.452Z,58240.00
2019-04-10T11:45:46.547Z,54016.00
2019-04-10T11:46:43.848Z,61056.00
2019-04-10T11:48:47.060Z,73504.00
2019-04-10T11:49:48.909Z,77600.00
2019-04-10T11:51:53.641Z,86400.00
2019-04-10T11:52:53.362Z,83040.00
2019-04-10T11:55:06.032Z,50880.00
2019-04-10T11:55:59.166Z,44384.00
2019-04-10T11:58:00.295Z,64032.00
2019-04-10T11:59:01.658Z,81696.00
2019-04-10T12:01:08.501Z,91040.00
2019-04-10T12:04:10.772Z,104864.00
2019-04-10T12:05:13.783Z,103904.00
2019-04-10T12:07:49.165Z,74656.00
2019-04-10T12:08:40.175Z,72096.00
2019-04-10T12:11:10.961Z,47904.00
2019-04-10T12:13:12.342Z,109984.00
2019-04-10T12:14:11.569Z,117600.00
2019-04-10T12:16:16.740Z,104576.00
2019-04-10T12:17:16.103Z,101120.00
2019-04-10T12:19:22.396Z,78560.00
2019-04-10T12:20:20.859Z,94784.00
2019-04-10T12:22:24.602Z,110976.00
2019-04-10T12:23:25.138Z,109952.00
2019-04-10T12:25:29.126Z,91168.00
2019-04-10T12:26:29.263Z,71936.00
2019-04-10T12:28:33.903Z,57088.00
2019-04-10T12:29:33.701Z,61120.00
2019-04-10T12:31:37.870Z,57472.00
2019-04-10T12:32:38.985Z,43104.00
2019-04-10T12:34:42.487Z,38208.00
2019-04-10T12:35:42.552Z,38368.00
2019-04-10T12:37:57.288Z,49280.00
2019-04-10T12:38:47.792Z,98304.00
2019-04-10T12:40:40.563Z,105216.00
2019-04-10T12:41:41.540Z,88512.00
2019-04-10T12:43:45.164Z,68768.00
2019-04-10T12:44:44.845Z,49600.00
2019-04-10T12:46:49.185Z,71360.00
2019-04-10T12:47:50.252Z,77952.00
2019-04-10T12:49:53.982Z,67008.00
2019-04-10T12:50:55.074Z,57536.00
2019-04-10T12:52:58.847Z,80288.00
2019-04-10T12:53:58.372Z,68928.00
2019-04-10T12:56:02.480Z,64448.00
2019-04-10T12:57:02.729Z,53088.00
2019-04-10T12:59:07.005Z,79136.00
2019-04-10T13:00:07.250Z,75456.00
2019-04-10T13:02:12.345Z,55264.00
2019-04-10T13:03:11.684Z,40544.00
2019-04-10T13:05:16.735Z,47520.00
2019-04-10T13:06:16.117Z,52800.00
2019-04-10T13:08:22.440Z,37856.00
2019-04-10T13:09:20.589Z,40256.00
2019-04-10T13:11:24.779Z,29984.00
2019-04-10T13:12:25.103Z,31808.00
2019-04-10T13:14:29.186Z,39872.00
2019-04-10T13:15:29.746Z,39776.00
2019-04-10T13:17:33.639Z,45344.00
2019-04-10T13:18:33.884Z,47456.00
2019-04-10T13:20:27.037Z,44512.00
2019-04-10T13:21:28.422Z,56384.00
2019-04-10T13:23:31.507Z,32704.00
2019-04-10T13:24:31.748Z,33760.00
2019-04-10T13:26:35.934Z,24064.00
2019-04-10T13:27:36.914Z,23776.00
2019-04-10T13:29:40.544Z,28768.00
2019-04-10T13:30:48.931Z,36032.00
2019-04-10T13:32:44.823Z,43968.00
2019-04-10T13:33:45.071Z,38080.00
2019-04-10T13:35:49.233Z,39840.00
2019-04-10T13:36:49.474Z,42400.00
2019-04-10T13:38:54.726Z,28384.00
2019-04-10T13:39:53.894Z,28608.00
2019-04-10T13:41:58.827Z,29440.00
2019-04-10T13:42:58.317Z,34944.00
2019-04-10T13:45:02.853Z,41728.00
2019-04-10T13:46:02.716Z,53920.00
2019-04-10T13:48:08.075Z,56960.00
2019-04-10T13:49:07.136Z,70144.00
2019-04-10T13:51:11.296Z,72480.00
2019-04-10T13:52:11.986Z,86208.00
2019-04-10T13:54:16.525Z,64512.00
2019-04-10T13:55:16.892Z,60256.00
2019-04-10T13:57:20.248Z,54368.00
2019-04-10T13:58:21.326Z,51360.00
2019-04-10T14:00:13.482Z,42912.00
2019-04-10T14:01:13.729Z,52384.00
2019-04-10T14:03:19.200Z,58048.00
2019-04-10T14:04:18.766Z,61440.00
2019-04-10T14:06:22.315Z,63968.00
2019-04-10T14:07:22.559Z,56608.00
2019-04-10T14:09:35.741Z,38624.00
2019-04-10T14:10:28.064Z,34848.00
2019-04-10T14:12:31.256Z,42432.00
2019-04-10T14:13:31.729Z,44192.00
2019-04-10T14:15:35.879Z,43840.00
2019-04-10T14:16:36.986Z,43776.00
2019-04-10T14:18:41.029Z,37504.00
2019-04-10T14:19:40.249Z,39328.00
2019-04-10T14:21:45.035Z,35424.00
2019-04-10T14:22:44.652Z,34112.00
2019-04-10T14:24:49.794Z,42592.00
2019-04-10T14:25:49.783Z,39328.00
2019-04-10T14:27:54.332Z,40896.00
2019-04-10T14:28:53.590Z,42432.00
2019-04-10T14:30:47.326Z,51008.00
2019-04-10T14:31:46.970Z,47328.00
2019-04-10T14:33:51.020Z,29632.00
2019-04-10T14:34:51.251Z,27040.00
2019-04-10T14:36:55.418Z,35552.00
2019-04-10T14:37:56.813Z,36384.00
2019-04-10T14:39:59.942Z,38304.00
2019-04-10T14:41:01.097Z,33792.00
2019-04-10T14:43:05.266Z,34848.00
2019-04-10T14:44:04.530Z,36160.00
2019-04-10T14:46:08.698Z,28224.00
2019-04-10T14:47:08.935Z,27904.00
2019-04-10T14:49:13.213Z,23584.00
2019-04-10T14:50:13.687Z,22144.00
2019-04-10T14:52:17.531Z,28448.00
2019-04-10T14:53:17.775Z,33984.00
2019-04-10T14:55:22.111Z,28064.00
2019-04-10T14:56:22.209Z,24064.00
2019-04-10T14:58:28.147Z,23904.00
2019-04-10T14:59:26.633Z,24160.00
2019-04-10T15:01:30.794Z,23680.00
2019-04-10T15:02:31.037Z,23104.00
2019-04-10T15:04:35.332Z,22048.00
2019-04-10T15:05:44.692Z,21440.00
2019-04-10T15:07:39.628Z,20736.00
2019-04-10T15:08:39.872Z,20160.00
2019-04-10T15:10:32.980Z,19072.00
2019-04-10T15:11:33.224Z,16440.00
2019-04-10T15:13:38.075Z,16744.00
2019-04-10T15:14:37.655Z,16356.00
2019-04-10T15:16:52.471Z,15376.00
2019-04-10T15:17:42.236Z,13888.00
2019-04-10T15:19:46.917Z,13816.00
2019-04-10T15:20:47.255Z,14188.00
2019-04-10T15:22:50.657Z,15628.00
2019-04-10T15:23:51.128Z,16376.00
2019-04-10T15:25:55.473Z,16792.00
2019-04-10T15:26:55.608Z,16724.00
2019-04-10T15:29:00.286Z,16500.00
2019-04-10T15:29:59.937Z,16332.00
2019-04-10T15:32:04.259Z,15916.00
2019-04-10T15:33:04.520Z,15632.00
2019-04-10T15:35:08.408Z,15196.00
2019-04-10T15:36:09.442Z,14996.00
2019-04-10T15:38:13.742Z,14328.00
2019-04-10T15:39:12.979Z,13648.00
2019-04-10T15:41:17.159Z,13460.00
2019-04-10T15:42:17.401Z,13536.00
2019-04-10T15:44:21.851Z,13932.00
2019-04-10T15:45:21.849Z,14040.00
2019-04-10T15:47:27.026Z,14096.00
2019-04-10T15:48:27.174Z,14200.00
2019-04-10T15:50:19.366Z,14028.00
2019-04-10T15:51:20.395Z,13988.00
2019-04-10T15:53:24.412Z,13944.00
2019-04-10T15:54:23.987Z,13968.00
2019-04-10T15:56:28.166Z,13976.00
2019-04-10T15:57:28.944Z,14960.00
2019-04-10T15:59:32.582Z,21920.00
2019-04-10T16:00:33.042Z,21120.00
2019-04-10T16:02:36.983Z,19104.00
2019-04-10T16:03:37.225Z,19360.00
2019-04-10T16:05:41.832Z,19744.00
2019-04-10T16:06:41.845Z,19488.00
2019-04-10T16:08:45.810Z,19872.00
2019-04-10T16:09:51.641Z,19168.00
2019-04-10T16:11:50.262Z,18752.00
2019-04-10T16:12:50.475Z,18400.00
2019-04-10T16:14:54.906Z,17120.00
2019-04-10T16:15:54.892Z,16832.00
2019-04-10T16:17:59.049Z,15988.00
2019-04-10T16:18:59.327Z,16036.00
2019-04-10T16:21:04.127Z,15264.00
2019-04-10T16:22:03.696Z,14888.00
2019-04-10T16:24:08.770Z,14624.00
2019-04-10T16:25:08.096Z,13848.00
2019-04-10T16:27:12.267Z,13568.00
2019-04-10T16:28:12.640Z,13188.00
2019-04-10T16:30:06.015Z,12724.00
2019-04-10T16:31:05.912Z,12396.00
2019-04-10T16:33:11.197Z,11536.00
2019-04-10T16:34:10.315Z,11248.00
2019-04-10T16:36:14.489Z,10332.00
2019-04-10T16:37:14.740Z,10260.00
2019-04-10T16:39:19.687Z,9916.00
2019-04-10T16:40:19.170Z,9672.00
2019-04-10T16:42:24.461Z,9056.00
2019-04-10T16:43:24.386Z,8844.00
2019-04-10T16:45:28.663Z,8596.00
2019-04-10T16:46:28.028Z,8320.00
2019-04-10T16:48:32.177Z,7852.00
2019-04-10T16:49:32.939Z,7860.00
2019-04-10T16:51:36.655Z,7400.00
2019-04-10T16:52:36.923Z,7208.00
2019-04-10T16:54:41.104Z,6920.00
2019-04-10T16:55:41.354Z,7020.00
2019-04-10T16:57:45.539Z,6328.00
2019-04-10T16:58:45.812Z,6164.00
2019-04-10T17:00:39.738Z,5944.00
2019-04-10T17:01:39.274Z,5792.00
2019-04-10T17:03:44.205Z,5512.00
2019-04-10T17:04:43.799Z,5348.00
2019-04-10T17:06:47.910Z,5120.00
2019-04-10T17:07:48.151Z,5020.00
2019-04-10T17:09:53.245Z,4772.00
2019-04-10T17:10:52.564Z,4664.00
2019-04-10T17:12:56.719Z,4496.00
2019-04-10T17:13:57.238Z,4424.00
2019-04-10T17:16:01.725Z,4252.00
2019-04-10T17:17:02.116Z,4148.00
2019-04-10T17:19:05.715Z,3900.00
2019-04-10T17:20:07.025Z,3864.00
2019-04-10T17:22:11.016Z,3668.00
2019-04-10T17:23:10.308Z,3544.00
2019-04-10T17:25:14.710Z,3328.00
2019-04-10T17:26:14.971Z,3240.00
2019-04-10T17:28:21.670Z,3036.00
2019-04-10T17:29:19.175Z,2932.00
2019-04-10T17:31:24.526Z,2708.00
2019-04-10T17:32:23.611Z,2580.00
2019-04-10T17:34:27.786Z,2320.00
2019-04-10T17:35:28.021Z,2184.00
2019-04-10T17:37:32.189Z,1912.00
2019-04-10T17:38:32.426Z,1792.00
2019-04-10T17:40:33.867Z,1616.00
2019-04-10T17:41:26.107Z,1552.00
2019-04-10T17:43:30.236Z,1416.00
2019-04-10T17:44:31.621Z,1360.00
2019-04-10T17:46:35.304Z,1252.00
2019-04-10T17:47:34.878Z,1200.00
2019-04-10T17:49:39.368Z,1092.00
2019-04-10T17:50:39.637Z,1040.00
2019-04-10T17:52:45.022Z,928.00
2019-04-10T17:53:45.286Z,876.00
2019-04-10T17:55:47.899Z,776.00
2019-04-10T17:56:48.523Z,724.00
2019-04-10T17:58:52.436Z,632.00
2019-04-10T17:59:52.771Z,588.00
2019-04-10T18:01:56.993Z,500.00
2019-04-10T18:02:57.259Z,460.00
2019-04-10T18:05:02.371Z,384.00
2019-04-10T18:06:01.555Z,348.00
2019-04-10T18:08:05.722Z,288.00
2019-04-10T18:09:05.954Z,256.00
2019-04-10T18:11:10.101Z,204.00
2019-04-10T18:12:10.337Z,180.00
2019-04-10T18:14:15.310Z,140.00
2019-04-10T18:15:15.736Z,124.00
2019-04-10T18:17:18.930Z,96.00
2019-04-10T18:18:19.849Z,84.00
2019-04-10T18:20:12.224Z,64.00
2019-04-10T18:21:12.689Z,52.00
2019-04-10T18:23:17.560Z,40.00
2019-04-10T18:24:16.960Z,32.00
2019-04-10T18:26:21.146Z,24.00
2019-04-10T18:27:22.477Z,20.00
2019-04-10T18:29:25.562Z,12.00
2019-04-10T18:30:25.965Z,12.00
2019-04-10T18:32:29.916Z,8.00
2019-04-10T18:33:30.917Z,4.00
2019-04-10T18:35:35.261Z,4.00
2019-04-10T18:36:34.569Z,4.00
2019-04-10T18:38:38.717Z,4.00
2019-04-10T18:39:38.951Z,0.00